sensor_id;sensor_type;location;lat;lon;timestamp;pressure;altitude;pressure_sealevel;temperature;humidity
51271;BME280;37744;50.960;4.136;2022-11-15T00:01:08;58904.31;;;-147.64;100.00
51271;BME280;37744;50.960;4.136;2022-11-15T00:03:34;58904.31;;;-147.64;100.00
51271;BME280;37744;50.960;4.136;2022-11-15T00:06:03;58904.31;;;-147.64;100.00
51271;BME280;37744;50.960;4.136;2022-11-15T00:08:31;58904.31;;;-147.64;100.00
51271;BME280;37744;50.960;4.136;2022-11-15T00:10:57;58904.31;;;-147.64;100.00
51271;BME280;37744;50.960;4.136;2022-11-15T00:13:23;58904.31;;;-147.64;100.00
51271;BME280;37744;50.960;4.136;2022-11-15T00:15:48;58904.31;;;-147.64;100.00
51271;BME280;37744;50.960;4.136;2022-11-15T00:18:14;58904.31;;;-147.64;100.00
51271;BME280;37744;50.960;4.136;2022-11-15T00:20:40;58904.31;;;-147.64;100.00
51271;BME280;37744;50.960;4.136;2022-11-15T00:23:06;58904.31;;;-147.64;100.00
51271;BME280;37744;50.960;4.136;2022-11-15T00:25:32;58904.31;;;-147.64;100.00
51271;BME280;37744;50.960;4.136;2022-11-15T00:27:58;58904.31;;;-147.64;100.00
51271;BME280;37744;50.960;4.136;2022-11-15T00:30:24;58904.31;;;-147.64;100.00
51271;BME280;37744;50.960;4.136;2022-11-15T00:32:50;58904.31;;;-147.64;100.00
51271;BME280;37744;50.960;4.136;2022-11-15T00:35:15;58904.31;;;-147.64;100.00
51271;BME280;37744;50.960;4.136;2022-11-15T00:37:41;58904.31;;;-147.64;100.00
51271;BME280;37744;50.960;4.136;2022-11-15T00:40:07;58904.31;;;-147.64;100.00
51271;BME280;37744;50.960;4.136;2022-11-15T00:42:32;58904.31;;;-147.64;100.00
51271;BME280;37744;50.960;4.136;2022-11-15T00:44:58;58904.31;;;-147.64;100.00
51271;BME280;37744;50.960;4.136;2022-11-15T00:47:23;58904.31;;;-147.64;100.00
51271;BME280;37744;50.960;4.136;2022-11-15T00:50:48;58904.31;;;-147.64;100.00
51271;BME280;37744;50.960;4.136;2022-11-15T00:54:12;58904.31;;;-147.64;100.00
51271;BME280;37744;50.960;4.136;2022-11-15T00:57:36;58904.31;;;-147.64;100.00
51271;BME280;37744;50.960;4.136;2022-11-15T01:01:09;58904.31;;;-147.64;100.00
51271;BME280;37744;50.960;4.136;2022-11-15T01:04:35;58904.31;;;-147.64;100.00
51271;BME280;37744;50.960;4.136;2022-11-15T01:07:58;58904.31;;;-147.64;100.00
51271;BME280;37744;50.960;4.136;2022-11-15T01:11:22;58904.31;;;-147.64;100.00
51271;BME280;37744;50.960;4.136;2022-11-15T01:14:46;58904.31;;;-147.64;100.00
51271;BME280;37744;50.960;4.136;2022-11-15T01:18:11;58904.31;;;-147.64;100.00
51271;BME280;37744;50.960;4.136;2022-11-15T01:21:39;58904.31;;;-147.64;100.00
51271;BME280;37744;50.960;4.136;2022-11-15T01:25:03;58904.31;;;-147.64;100.00
51271;BME280;37744;50.960;4.136;2022-11-15T01:28:34;58904.31;;;-147.64;100.00
51271;BME280;37744;50.960;4.136;2022-11-15T01:31:59;58904.31;;;-147.64;100.00
51271;BME280;37744;50.960;4.136;2022-11-15T01:35:23;58904.31;;;-147.64;100.00
51271;BME280;37744;50.960;4.136;2022-11-15T01:38:47;58904.31;;;-147.64;100.00
51271;BME280;37744;50.960;4.136;2022-11-15T01:42:18;58904.31;;;-147.64;100.00
51271;BME280;37744;50.960;4.136;2022-11-15T01:45:44;58904.31;;;-147.64;100.00
51271;BME280;37744;50.960;4.136;2022-11-15T01:49:27;58904.31;;;-147.64;100.00
51271;BME280;37744;50.960;4.136;2022-11-15T01:52:54;58904.31;;;-147.64;100.00
51271;BME280;37744;50.960;4.136;2022-11-15T01:56:22;58904.31;;;-147.64;100.00
51271;BME280;37744;50.960;4.136;2022-11-15T01:59:48;58904.31;;;-147.64;100.00
51271;BME280;37744;50.960;4.136;2022-11-15T02:02:30;58904.31;;;-147.64;100.00
51271;BME280;37744;50.960;4.136;2022-11-15T02:05:54;58904.31;;;-147.64;100.00
51271;BME280;37744;50.960;4.136;2022-11-15T02:09:18;58904.31;;;-147.64;100.00
51271;BME280;37744;50.960;4.136;2022-11-15T02:12:42;58904.31;;;-147.64;100.00
51271;BME280;37744;50.960;4.136;2022-11-15T02:31:45;58904.31;;;-147.64;100.00
51271;BME280;37744;50.960;4.136;2022-11-15T02:43:12;58904.31;;;-147.64;100.00
51271;BME280;37744;50.960;4.136;2022-11-15T02:47:14;58904.31;;;-147.64;100.00
51271;BME280;37744;50.960;4.136;2022-11-15T02:50:45;58904.31;;;-147.64;100.00
51271;BME280;37744;50.960;4.136;2022-11-15T02:54:12;58904.31;;;-147.64;100.00
51271;BME280;37744;50.960;4.136;2022-11-15T02:57:41;58904.31;;;-147.64;100.00
51271;BME280;37744;50.960;4.136;2022-11-15T03:12:14;58904.31;;;-147.64;100.00
51271;BME280;37744;50.960;4.136;2022-11-15T03:16:03;58904.31;;;-147.64;100.00
51271;BME280;37744;50.960;4.136;2022-11-15T03:23:10;58904.31;;;-147.64;100.00
51271;BME280;37744;50.960;4.136;2022-11-15T03:26:36;58904.31;;;-147.64;100.00
51271;BME280;37744;50.960;4.136;2022-11-15T03:30:13;58904.31;;;-147.64;100.00
51271;BME280;37744;50.960;4.136;2022-11-15T03:33:40;58904.31;;;-147.64;100.00
51271;BME280;37744;50.960;4.136;2022-11-15T03:37:04;58904.31;;;-147.64;100.00
51271;BME280;37744;50.960;4.136;2022-11-15T03:40:30;58904.31;;;-147.64;100.00
51271;BME280;37744;50.960;4.136;2022-11-15T03:44:15;58904.31;;;-147.64;100.00
51271;BME280;37744;50.960;4.136;2022-11-15T03:47:59;58904.31;;;-147.64;100.00
51271;BME280;37744;50.960;4.136;2022-11-15T03:51:26;58904.31;;;-147.64;100.00
51271;BME280;37744;50.960;4.136;2022-11-15T03:54:52;58904.31;;;-147.64;100.00
51271;BME280;37744;50.960;4.136;2022-11-15T03:58:16;58904.31;;;-147.64;100.00
51271;BME280;37744;50.960;4.136;2022-11-15T04:01:40;58904.31;;;-147.64;100.00
51271;BME280;37744;50.960;4.136;2022-11-15T04:05:04;58904.31;;;-147.64;100.00
51271;BME280;37744;50.960;4.136;2022-11-15T04:08:28;58904.31;;;-147.64;100.00
51271;BME280;37744;50.960;4.136;2022-11-15T04:11:52;58904.31;;;-147.64;100.00
51271;BME280;37744;50.960;4.136;2022-11-15T04:15:20;58904.31;;;-147.64;100.00
51271;BME280;37744;50.960;4.136;2022-11-15T04:18:45;58904.31;;;-147.64;100.00
51271;BME280;37744;50.960;4.136;2022-11-15T04:22:29;58904.31;;;-147.64;100.00
51271;BME280;37744;50.960;4.136;2022-11-15T04:26:12;58904.31;;;-147.64;100.00
51271;BME280;37744;50.960;4.136;2022-11-15T04:29:38;58904.31;;;-147.64;100.00
51271;BME280;37744;50.960;4.136;2022-11-15T04:33:03;58904.31;;;-147.64;100.00
51271;BME280;37744;50.960;4.136;2022-11-15T04:36:27;58904.31;;;-147.64;100.00
51271;BME280;37744;50.960;4.136;2022-11-15T04:40:29;58904.31;;;-147.64;100.00
51271;BME280;37744;50.960;4.136;2022-11-15T04:43:53;58904.31;;;-147.64;100.00
51271;BME280;37744;50.960;4.136;2022-11-15T04:47:17;58904.31;;;-147.64;100.00
51271;BME280;37744;50.960;4.136;2022-11-15T04:50:41;58904.31;;;-147.64;100.00
51271;BME280;37744;50.960;4.136;2022-11-15T04:54:05;58904.31;;;-147.64;100.00
51271;BME280;37744;50.960;4.136;2022-11-15T04:57:28;58904.31;;;-147.64;100.00
51271;BME280;37744;50.960;4.136;2022-11-15T05:00:52;58904.31;;;-147.64;100.00
51271;BME280;37744;50.960;4.136;2022-11-15T05:04:16;58904.31;;;-147.64;100.00
51271;BME280;37744;50.960;4.136;2022-11-15T05:07:44;58904.31;;;-147.64;100.00
51271;BME280;37744;50.960;4.136;2022-11-15T05:11:08;58904.31;;;-147.64;100.00
51271;BME280;37744;50.960;4.136;2022-11-15T05:14:32;58904.31;;;-147.64;100.00
51271;BME280;37744;50.960;4.136;2022-11-15T05:17:58;58904.31;;;-147.64;100.00
51271;BME280;37744;50.960;4.136;2022-11-15T05:21:23;58904.31;;;-147.64;100.00
51271;BME280;37744;50.960;4.136;2022-11-15T05:24:47;58904.31;;;-147.64;100.00
51271;BME280;37744;50.960;4.136;2022-11-15T05:28:11;58904.31;;;-147.64;100.00
51271;BME280;37744;50.960;4.136;2022-11-15T05:31:35;58904.31;;;-147.64;100.00
51271;BME280;37744;50.960;4.136;2022-11-15T05:35:03;58904.31;;;-147.64;100.00
51271;BME280;37744;50.960;4.136;2022-11-15T05:38:30;58904.31;;;-147.64;100.00
51271;BME280;37744;50.960;4.136;2022-11-15T05:41:56;58904.31;;;-147.64;100.00
51271;BME280;37744;50.960;4.136;2022-11-15T05:45:23;58904.31;;;-147.64;100.00
51271;BME280;37744;50.960;4.136;2022-11-15T05:48:48;58904.31;;;-147.64;100.00
51271;BME280;37744;50.960;4.136;2022-11-15T05:52:15;58904.31;;;-147.64;100.00
51271;BME280;37744;50.960;4.136;2022-11-15T05:55:40;58904.31;;;-147.64;100.00
51271;BME280;37744;50.960;4.136;2022-11-15T05:59:05;58904.31;;;-147.64;100.00
51271;BME280;37744;50.960;4.136;2022-11-15T06:02:29;58904.31;;;-147.64;100.00
51271;BME280;37744;50.960;4.136;2022-11-15T06:05:53;58904.31;;;-147.64;100.00
51271;BME280;37744;50.960;4.136;2022-11-15T06:09:17;58904.31;;;-147.64;100.00
51271;BME280;37744;50.960;4.136;2022-11-15T06:12:41;58904.31;;;-147.64;100.00
51271;BME280;37744;50.960;4.136;2022-11-15T06:16:05;58904.31;;;-147.64;100.00
51271;BME280;37744;50.960;4.136;2022-11-15T06:19:30;58904.31;;;-147.64;100.00
51271;BME280;37744;50.960;4.136;2022-11-15T06:22:57;58904.31;;;-147.64;100.00
51271;BME280;37744;50.960;4.136;2022-11-15T06:26:21;58904.31;;;-147.64;100.00
51271;BME280;37744;50.960;4.136;2022-11-15T06:29:45;58904.31;;;-147.64;100.00
51271;BME280;37744;50.960;4.136;2022-11-15T06:33:09;58904.31;;;-147.64;100.00
51271;BME280;37744;50.960;4.136;2022-11-15T06:36:34;58904.31;;;-147.64;100.00
51271;BME280;37744;50.960;4.136;2022-11-15T06:39:58;58904.31;;;-147.64;100.00
51271;BME280;37744;50.960;4.136;2022-11-15T06:43:21;58904.31;;;-147.64;100.00
51271;BME280;37744;50.960;4.136;2022-11-15T06:46:45;58904.31;;;-147.64;100.00
51271;BME280;37744;50.960;4.136;2022-11-15T06:50:09;58904.31;;;-147.64;100.00
51271;BME280;37744;50.960;4.136;2022-11-15T06:53:34;58904.31;;;-147.64;100.00
51271;BME280;37744;50.960;4.136;2022-11-15T06:56:59;58904.31;;;-147.64;100.00
51271;BME280;37744;50.960;4.136;2022-11-15T07:00:23;58904.31;;;-147.64;100.00
51271;BME280;37744;50.960;4.136;2022-11-15T07:03:47;58904.31;;;-147.64;100.00
51271;BME280;37744;50.960;4.136;2022-11-15T07:07:11;58904.31;;;-147.64;100.00
51271;BME280;37744;50.960;4.136;2022-11-15T07:10:35;58904.31;;;-147.64;100.00
51271;BME280;37744;50.960;4.136;2022-11-15T07:13:59;58904.31;;;-147.64;100.00
51271;BME280;37744;50.960;4.136;2022-11-15T07:17:23;58904.31;;;-147.64;100.00
51271;BME280;37744;50.960;4.136;2022-11-15T07:20:47;58904.31;;;-147.64;100.00
51271;BME280;37744;50.960;4.136;2022-11-15T07:24:11;58904.31;;;-147.64;100.00
51271;BME280;37744;50.960;4.136;2022-11-15T07:27:35;58904.31;;;-147.64;100.00
51271;BME280;37744;50.960;4.136;2022-11-15T07:31:01;58904.31;;;-147.64;100.00
51271;BME280;37744;50.960;4.136;2022-11-15T07:34:27;58904.31;;;-147.64;100.00
51271;BME280;37744;50.960;4.136;2022-11-15T07:41:18;58904.31;;;-147.64;100.00
51271;BME280;37744;50.960;4.136;2022-11-15T07:44:42;58904.31;;;-147.64;100.00
51271;BME280;37744;50.960;4.136;2022-11-15T07:48:06;58904.31;;;-147.64;100.00
51271;BME280;37744;50.960;4.136;2022-11-15T07:51:29;58904.31;;;-147.64;100.00
51271;BME280;37744;50.960;4.136;2022-11-15T07:54:53;58904.31;;;-147.64;100.00
51271;BME280;37744;50.960;4.136;2022-11-15T07:58:17;58904.31;;;-147.64;100.00
51271;BME280;37744;50.960;4.136;2022-11-15T08:01:41;58904.31;;;-147.64;100.00
51271;BME280;37744;50.960;4.136;2022-11-15T08:05:05;58904.31;;;-147.64;100.00
51271;BME280;37744;50.960;4.136;2022-11-15T08:08:31;58904.31;;;-147.64;100.00
51271;BME280;37744;50.960;4.136;2022-11-15T08:11:58;58904.31;;;-147.64;100.00
51271;BME280;37744;50.960;4.136;2022-11-15T08:15:22;58904.31;;;-147.64;100.00
51271;BME280;37744;50.960;4.136;2022-11-15T08:18:45;58904.31;;;-147.64;100.00
51271;BME280;37744;50.960;4.136;2022-11-15T08:22:13;58904.31;;;-147.64;100.00
51271;BME280;37744;50.960;4.136;2022-11-15T08:25:37;58904.31;;;-147.64;100.00
51271;BME280;37744;50.960;4.136;2022-11-15T08:29:03;58904.31;;;-147.64;100.00
51271;BME280;37744;50.960;4.136;2022-11-15T08:32:27;58904.31;;;-147.64;100.00
51271;BME280;37744;50.960;4.136;2022-11-15T08:35:50;58904.31;;;-147.64;100.00
51271;BME280;37744;50.960;4.136;2022-11-15T08:39:15;58904.31;;;-147.64;100.00
51271;BME280;37744;50.960;4.136;2022-11-15T08:42:40;58904.31;;;-147.64;100.00
51271;BME280;37744;50.960;4.136;2022-11-15T08:46:04;58904.31;;;-147.64;100.00
51271;BME280;37744;50.960;4.136;2022-11-15T08:49:28;58904.31;;;-147.64;100.00
51271;BME280;37744;50.960;4.136;2022-11-15T08:52:52;58904.31;;;-147.64;100.00
51271;BME280;37744;50.960;4.136;2022-11-15T08:56:16;58904.31;;;-147.64;100.00
51271;BME280;37744;50.960;4.136;2022-11-15T08:59:40;58904.31;;;-147.64;100.00
51271;BME280;37744;50.960;4.136;2022-11-15T09:03:04;58904.31;;;-147.64;100.00
51271;BME280;37744;50.960;4.136;2022-11-15T09:06:29;58904.31;;;-147.64;100.00
51271;BME280;37744;50.960;4.136;2022-11-15T09:09:54;58904.31;;;-147.64;100.00
51271;BME280;37744;50.960;4.136;2022-11-15T09:13:18;58904.31;;;-147.64;100.00
51271;BME280;37744;50.960;4.136;2022-11-15T09:16:43;58904.31;;;-147.64;100.00
51271;BME280;37744;50.960;4.136;2022-11-15T09:20:07;58904.31;;;-147.64;100.00
51271;BME280;37744;50.960;4.136;2022-11-15T09:23:31;58904.31;;;-147.64;100.00
51271;BME280;37744;50.960;4.136;2022-11-15T09:26:59;58904.31;;;-147.64;100.00
51271;BME280;37744;50.960;4.136;2022-11-15T09:30:23;58904.31;;;-147.64;100.00
51271;BME280;37744;50.960;4.136;2022-11-15T09:33:48;58904.31;;;-147.64;100.00
51271;BME280;37744;50.960;4.136;2022-11-15T09:37:12;58904.31;;;-147.64;100.00
51271;BME280;37744;50.960;4.136;2022-11-15T10:11:17;100084.09;;;12.65;88.25
51271;BME280;37744;50.960;4.136;2022-11-15T10:13:44;100080.72;;;11.78;94.88
51271;BME280;37744;50.960;4.136;2022-11-15T10:19:00;100065.53;;;11.30;100.00
51271;BME280;37744;50.960;4.136;2022-11-15T10:21:48;100055.59;;;11.00;100.00
51271;BME280;37744;50.960;4.136;2022-11-15T10:24:19;100050.72;;;10.92;100.00
51271;BME280;37744;50.960;4.136;2022-11-15T10:26:47;100054.97;;;10.95;100.00
51271;BME280;37744;50.960;4.136;2022-11-15T10:29:20;100043.13;;;10.86;100.00
51271;BME280;37744;50.960;4.136;2022-11-15T10:31:45;100036.09;;;10.87;100.00
51271;BME280;37744;50.960;4.136;2022-11-15T10:36:36;100029.00;;;10.89;100.00
51271;BME280;37744;50.960;4.136;2022-11-15T10:39:01;100032.53;;;10.88;100.00
51271;BME280;37744;50.960;4.136;2022-11-15T10:47:05;100015.31;;;11.00;100.00
51271;BME280;37744;50.960;4.136;2022-11-15T10:49:32;100007.03;;;11.07;100.00
51271;BME280;37744;50.960;4.136;2022-11-15T10:57:19;99980.31;;;11.17;100.00
51271;BME280;37744;50.960;4.136;2022-11-15T10:59:49;99983.41;;;11.25;100.00
51271;BME280;37744;50.960;4.136;2022-11-15T11:05:29;99967.94;;;11.37;100.00
51271;BME280;37744;50.960;4.136;2022-11-15T11:08:01;99963.44;;;11.39;100.00
51271;BME280;37744;50.960;4.136;2022-11-15T11:10:27;99954.50;;;11.43;100.00
51271;BME280;37744;50.960;4.136;2022-11-15T11:12:53;99962.44;;;11.41;100.00
51271;BME280;37744;50.960;4.136;2022-11-15T11:15:18;99959.13;;;11.38;100.00
51271;BME280;37744;50.960;4.136;2022-11-15T11:20:44;99948.91;;;11.49;99.41
51271;BME280;37744;50.960;4.136;2022-11-15T11:25:53;99936.03;;;11.60;99.47
51271;BME280;37744;50.960;4.136;2022-11-15T11:28:38;99938.00;;;11.73;99.67
51271;BME280;37744;50.960;4.136;2022-11-15T11:36:17;99911.47;;;11.94;97.64
51271;BME280;37744;50.960;4.136;2022-11-15T11:41:20;99905.00;;;11.83;96.08
51271;BME280;37744;50.960;4.136;2022-11-15T11:48:43;99902.88;;;11.74;97.13
51271;BME280;37744;50.960;4.136;2022-11-15T11:51:20;99895.91;;;11.73;97.82
51271;BME280;37744;50.960;4.136;2022-11-15T11:53:51;99888.19;;;11.70;97.20
51271;BME280;37744;50.960;4.136;2022-11-15T11:56:34;99892.53;;;11.71;97.50
51271;BME280;37744;50.960;4.136;2022-11-15T11:59:01;99883.69;;;11.72;98.22
51271;BME280;37744;50.960;4.136;2022-11-15T12:01:42;99878.88;;;11.80;99.14
51271;BME280;37744;50.960;4.136;2022-11-15T12:12:54;99858.66;;;11.81;98.74
51271;BME280;37744;50.960;4.136;2022-11-15T12:17:25;99855.25;;;11.78;100.00
51271;BME280;37744;50.960;4.136;2022-11-15T12:19:52;99843.72;;;11.81;100.00
51271;BME280;37744;50.960;4.136;2022-11-15T12:22:21;99836.59;;;11.83;99.98
51271;BME280;37744;50.960;4.136;2022-11-15T12:25:01;99830.75;;;11.78;100.00
51271;BME280;37744;50.960;4.136;2022-11-15T12:29:56;99820.97;;;11.80;100.00
51271;BME280;37744;50.960;4.136;2022-11-15T12:34:49;99799.75;;;11.83;100.00
51271;BME280;37744;50.960;4.136;2022-11-15T12:45:29;99780.06;;;11.90;100.00
51271;BME280;37744;50.960;4.136;2022-11-15T13:01:08;99740.47;;;12.08;100.00
51271;BME280;37744;50.960;4.136;2022-11-15T13:03:35;99736.75;;;12.12;100.00
51271;BME280;37744;50.960;4.136;2022-11-15T13:06:02;99727.13;;;12.11;100.00
51271;BME280;37744;50.960;4.136;2022-11-15T13:09:01;99727.91;;;12.13;100.00
51271;BME280;37744;50.960;4.136;2022-11-15T13:11:41;99719.91;;;12.15;100.00
51271;BME280;37744;50.960;4.136;2022-11-15T13:14:31;99711.75;;;12.19;100.00
51271;BME280;37744;50.960;4.136;2022-11-15T13:16:55;99712.41;;;12.23;100.00
51271;BME280;37744;50.960;4.136;2022-11-15T13:19:22;99708.00;;;12.24;100.00
51271;BME280;37744;50.960;4.136;2022-11-15T13:21:49;99703.50;;;12.26;100.00
51271;BME280;37744;50.960;4.136;2022-11-15T13:24:37;99697.63;;;12.21;100.00
51271;BME280;37744;50.960;4.136;2022-11-15T13:27:10;99689.00;;;12.18;100.00
51271;BME280;37744;50.960;4.136;2022-11-15T13:29:36;99689.19;;;12.15;100.00
51271;BME280;37744;50.960;4.136;2022-11-15T13:32:01;99695.94;;;12.19;100.00
51271;BME280;37744;50.960;4.136;2022-11-15T13:34:30;99686.63;;;12.14;100.00
51271;BME280;37744;50.960;4.136;2022-11-15T13:37:01;99681.47;;;12.12;100.00
51271;BME280;37744;50.960;4.136;2022-11-15T13:41:52;99678.84;;;12.12;100.00
51271;BME280;37744;50.960;4.136;2022-11-15T13:44:28;99676.94;;;12.14;100.00
51271;BME280;37744;50.960;4.136;2022-11-15T13:47:09;99674.41;;;12.13;100.00
51271;BME280;37744;50.960;4.136;2022-11-15T13:49:37;99672.38;;;12.18;100.00
51271;BME280;37744;50.960;4.136;2022-11-15T13:52:04;99675.56;;;12.23;100.00
51271;BME280;37744;50.960;4.136;2022-11-15T13:57:08;99670.56;;;12.18;100.00
51271;BME280;37744;50.960;4.136;2022-11-15T13:59:36;99660.50;;;12.11;100.00
51271;BME280;37744;50.960;4.136;2022-11-15T14:02:18;99653.53;;;12.10;100.00
51271;BME280;37744;50.960;4.136;2022-11-15T14:04:49;99656.25;;;12.08;100.00
51271;BME280;37744;50.960;4.136;2022-11-15T14:07:20;99647.59;;;12.06;100.00
51271;BME280;37744;50.960;4.136;2022-11-15T14:09:46;99651.09;;;12.07;100.00
51271;BME280;37744;50.960;4.136;2022-11-15T14:12:21;99637.25;;;12.03;100.00
51271;BME280;37744;50.960;4.136;2022-11-15T14:14:47;99642.53;;;12.03;100.00
51271;BME280;37744;50.960;4.136;2022-11-15T14:17:19;99631.28;;;11.99;100.00
51271;BME280;37744;50.960;4.136;2022-11-15T14:19:44;99628.41;;;12.04;100.00
51271;BME280;37744;50.960;4.136;2022-11-15T14:22:14;99626.53;;;12.06;100.00
51271;BME280;37744;50.960;4.136;2022-11-15T14:24:40;99622.97;;;12.07;100.00
51271;BME280;37744;50.960;4.136;2022-11-15T14:27:23;99625.03;;;12.02;100.00
51271;BME280;37744;50.960;4.136;2022-11-15T14:29:49;99626.09;;;11.98;100.00
51271;BME280;37744;50.960;4.136;2022-11-15T14:32:21;99617.25;;;11.99;100.00
51271;BME280;37744;50.960;4.136;2022-11-15T14:34:48;99620.28;;;11.93;100.00
51271;BME280;37744;50.960;4.136;2022-11-15T14:37:19;99619.69;;;11.87;100.00
51271;BME280;37744;50.960;4.136;2022-11-15T14:39:44;99619.13;;;11.82;100.00
51271;BME280;37744;50.960;4.136;2022-11-15T14:42:10;99619.56;;;11.74;100.00
51271;BME280;37744;50.960;4.136;2022-11-15T14:44:35;99610.34;;;11.67;100.00
51271;BME280;37744;50.960;4.136;2022-11-15T14:47:00;99614.78;;;11.67;100.00
51271;BME280;37744;50.960;4.136;2022-11-15T14:49:25;99610.16;;;11.70;100.00
51271;BME280;37744;50.960;4.136;2022-11-15T14:51:50;99607.91;;;11.64;100.00
51271;BME280;37744;50.960;4.136;2022-11-15T14:54:16;99609.66;;;11.63;100.00
51271;BME280;37744;50.960;4.136;2022-11-15T14:56:41;99610.72;;;11.61;100.00
51271;BME280;37744;50.960;4.136;2022-11-15T14:59:07;99604.19;;;11.52;100.00
51271;BME280;37744;50.960;4.136;2022-11-15T15:01:32;99600.53;;;11.55;100.00
51271;BME280;37744;50.960;4.136;2022-11-15T15:03:58;99591.03;;;11.52;100.00
51271;BME280;37744;50.960;4.136;2022-11-15T15:06:24;99587.31;;;11.56;100.00
51271;BME280;37744;50.960;4.136;2022-11-15T15:08:49;99586.81;;;11.49;100.00
51271;BME280;37744;50.960;4.136;2022-11-15T15:11:18;99578.59;;;11.40;100.00
51271;BME280;37744;50.960;4.136;2022-11-15T15:13:45;99571.63;;;11.39;100.00
51271;BME280;37744;50.960;4.136;2022-11-15T15:16:10;99569.94;;;11.38;100.00
51271;BME280;37744;50.960;4.136;2022-11-15T15:18:36;99566.63;;;11.34;100.00
51271;BME280;37744;50.960;4.136;2022-11-15T15:21:01;99566.63;;;11.34;100.00
51271;BME280;37744;50.960;4.136;2022-11-15T15:23:32;99556.31;;;11.31;100.00
51271;BME280;37744;50.960;4.136;2022-11-15T15:25:57;99551.38;;;11.25;100.00
51271;BME280;37744;50.960;4.136;2022-11-15T15:28:23;99551.38;;;11.25;100.00
51271;BME280;37744;50.960;4.136;2022-11-15T15:30:48;99547.25;;;11.20;100.00
51271;BME280;37744;50.960;4.136;2022-11-15T15:33:14;99545.97;;;11.28;100.00
51271;BME280;37744;50.960;4.136;2022-11-15T15:35:40;99548.34;;;11.32;100.00
51271;BME280;37744;50.960;4.136;2022-11-15T15:38:05;99546.53;;;11.33;100.00
51271;BME280;37744;50.960;4.136;2022-11-15T15:40:32;99545.88;;;11.29;100.00
51271;BME280;37744;50.960;4.136;2022-11-15T15:42:58;99546.81;;;11.28;100.00
51271;BME280;37744;50.960;4.136;2022-11-15T15:45:24;99540.97;;;11.23;100.00
51271;BME280;37744;50.960;4.136;2022-11-15T15:47:50;99539.03;;;11.27;100.00
51271;BME280;37744;50.960;4.136;2022-11-15T15:52:42;99543.50;;;11.25;100.00
51271;BME280;37744;50.960;4.136;2022-11-15T15:55:07;99540.97;;;11.23;100.00
51271;BME280;37744;50.960;4.136;2022-11-15T15:57:32;99541.91;;;11.22;100.00
51271;BME280;37744;50.960;4.136;2022-11-15T15:59:57;99542.84;;;11.21;100.00
51271;BME280;37744;50.960;4.136;2022-11-15T16:02:23;99531.75;;;11.16;100.00
51271;BME280;37744;50.960;4.136;2022-11-15T16:04:48;99531.75;;;11.16;100.00
51271;BME280;37744;50.960;4.136;2022-11-15T16:07:21;99531.75;;;11.16;100.00
51271;BME280;37744;50.960;4.136;2022-11-15T16:09:49;58904.31;;;-147.64;100.00
51271;BME280;37744;50.960;4.136;2022-11-15T16:12:27;58904.31;;;-147.64;100.00
51271;BME280;37744;50.960;4.136;2022-11-15T16:14:52;58904.31;;;-147.64;100.00
51271;BME280;37744;50.960;4.136;2022-11-15T16:17:18;58904.31;;;-147.64;100.00
51271;BME280;37744;50.960;4.136;2022-11-15T16:19:44;58904.31;;;-147.64;100.00
51271;BME280;37744;50.960;4.136;2022-11-15T16:22:10;58904.31;;;-147.64;100.00
51271;BME280;37744;50.960;4.136;2022-11-15T16:24:35;58904.31;;;-147.64;100.00
51271;BME280;37744;50.960;4.136;2022-11-15T16:27:00;58904.31;;;-147.64;100.00
51271;BME280;37744;50.960;4.136;2022-11-15T16:29:26;58904.31;;;-147.64;100.00
51271;BME280;37744;50.960;4.136;2022-11-15T16:31:51;58904.31;;;-147.64;100.00
51271;BME280;37744;50.960;4.136;2022-11-15T16:34:16;58904.31;;;-147.64;100.00
51271;BME280;37744;50.960;4.136;2022-11-15T16:36:42;58904.31;;;-147.64;100.00
51271;BME280;37744;50.960;4.136;2022-11-15T16:39:10;58904.31;;;-147.64;100.00
51271;BME280;37744;50.960;4.136;2022-11-15T16:41:35;58904.31;;;-147.64;100.00
51271;BME280;37744;50.960;4.136;2022-11-15T16:44:01;58904.31;;;-147.64;100.00
51271;BME280;37744;50.960;4.136;2022-11-15T16:46:26;58904.31;;;-147.64;100.00
51271;BME280;37744;50.960;4.136;2022-11-15T16:48:52;58904.31;;;-147.64;100.00
51271;BME280;37744;50.960;4.136;2022-11-15T16:51:18;58904.31;;;-147.64;100.00
51271;BME280;37744;50.960;4.136;2022-11-15T16:53:43;58904.31;;;-147.64;100.00
51271;BME280;37744;50.960;4.136;2022-11-15T16:56:14;58904.31;;;-147.64;100.00
51271;BME280;37744;50.960;4.136;2022-11-15T16:58:42;58904.31;;;-147.64;100.00
51271;BME280;37744;50.960;4.136;2022-11-15T17:01:09;58904.31;;;-147.64;100.00
51271;BME280;37744;50.960;4.136;2022-11-15T17:03:40;58904.31;;;-147.64;100.00
51271;BME280;37744;50.960;4.136;2022-11-15T17:06:06;58904.31;;;-147.64;100.00
51271;BME280;37744;50.960;4.136;2022-11-15T17:08:32;58904.31;;;-147.64;100.00
51271;BME280;37744;50.960;4.136;2022-11-15T17:10:58;58904.31;;;-147.64;100.00
51271;BME280;37744;50.960;4.136;2022-11-15T17:13:24;58904.31;;;-147.64;100.00
51271;BME280;37744;50.960;4.136;2022-11-15T17:15:49;58904.31;;;-147.64;100.00
51271;BME280;37744;50.960;4.136;2022-11-15T17:18:14;58904.31;;;-147.64;100.00
51271;BME280;37744;50.960;4.136;2022-11-15T17:20:40;58904.31;;;-147.64;100.00
51271;BME280;37744;50.960;4.136;2022-11-15T17:23:09;58904.31;;;-147.64;100.00
51271;BME280;37744;50.960;4.136;2022-11-15T17:25:36;58904.31;;;-147.64;100.00
51271;BME280;37744;50.960;4.136;2022-11-15T17:28:02;58904.31;;;-147.64;100.00
51271;BME280;37744;50.960;4.136;2022-11-15T17:30:28;58904.31;;;-147.64;100.00
51271;BME280;37744;50.960;4.136;2022-11-15T17:32:53;99531.75;;;11.16;100.00
51271;BME280;37744;50.960;4.136;2022-11-15T17:35:19;99494.38;;;11.41;100.00